Time;durP1;ratioP1;P1;durP2;ratioP2;P2;SDS_P1;SDS_P2;PMS_P1;PMS_P2;Temp;Humidity;BMP_temperature;BMP_pressure;BME280_temperature;BME280_humidity;BME280_pressure;Samples;Min_cycle;Max_cycle;Signal;HPM_P1;HPM_P2
2021/07/14 00:00:59;;;;;;;5.03;3.35;;;;;;;20.71;68.68;100791.00;5040862;28;20032;-86
2021/07/14 00:03:26;;;;;;;3.10;2.80;;;;;;;20.80;68.00;100782.88;5052522;28;20230;-85
2021/07/14 00:05:51;;;;;;;4.05;3.55;;;;;;;20.72;68.12;100784.69;5052430;28;20021;-86
2021/07/14 00:08:16;;;;;;;4.60;2.92;;;;;;;20.79;68.22;100781.22;5052489;28;20055;-86
2021/07/14 00:10:42;;;;;;;3.60;3.30;;;;;;;20.77;67.76;100787.69;5052592;28;20071;-85
2021/07/14 00:13:24;;;;;;;3.72;3.40;;;;;;;20.76;68.35;100786.03;5052686;28;20471;-86
2021/07/14 00:23:55;;;;;;;4.78;3.05;;;;;;;20.49;68.86;100784.38;5032630;28;20040;-85
2021/07/14 00:26:21;;;;;;;3.78;3.38;;;;;;;20.38;69.03;100793.50;5032375;28;20025;-86
2021/07/14 00:28:51;;;;;;;5.30;3.40;;;;;;;20.36;69.27;100798.16;5032292;28;20022;-86
2021/07/14 00:31:17;;;;;;;6.28;3.50;;;;;;;20.33;69.48;100796.63;5047300;28;20029;-85
2021/07/14 00:33:43;;;;;;;6.22;3.92;;;;;;;20.15;69.66;100796.69;5035170;28;20022;-86
2021/07/14 00:36:09;;;;;;;4.07;3.67;;;;;;;20.25;69.70;100798.44;5032193;28;20503;-85
2021/07/14 00:38:35;;;;;;;6.57;3.50;;;;;;;20.21;69.31;100797.91;5036396;28;20029;-86
2021/07/14 00:41:01;;;;;;;4.65;3.22;;;;;;;20.10;70.50;100801.69;5032132;28;20025;-86
2021/07/14 00:43:26;;;;;;;4.53;3.67;;;;;;;20.05;69.81;100801.31;5031993;28;20022;-85
2021/07/14 00:45:52;;;;;;;6.35;3.50;;;;;;;20.06;70.49;100805.63;5031955;28;20036;-85
2021/07/14 00:48:25;;;;;;;5.47;3.80;;;;;;;20.07;70.34;100801.97;5044595;28;20036;-85
2021/07/14 00:50:51;;;;;;;3.72;3.33;;;;;;;20.05;70.17;100800.47;5051814;28;20475;-86
2021/07/14 00:53:16;;;;;;;5.40;3.45;;;;;;;20.03;70.84;100803.28;5051689;28;20029;-86
2021/07/14 00:55:42;;;;;;;4.75;3.63;;;;;;;19.96;70.30;100810.22;5051782;28;20017;-86
2021/07/14 00:58:07;;;;;;;5.75;3.35;;;;;;;19.82;70.87;100816.94;5051905;28;20525;-86
2021/07/14 01:00:32;;;;;;;4.20;3.70;;;;;;;19.95;70.78;100816.56;5046437;28;20033;-85
2021/07/14 01:02:59;;;;;;;9.50;3.20;;;;;;;19.88;70.90;100818.16;5031762;28;20560;-86
2021/07/14 01:05:44;;;;;;;9.45;3.63;;;;;;;19.88;70.76;100819.00;5031621;28;20013;-86
2021/07/14 01:08:30;;;;;;;6.28;3.78;;;;;;;19.87;71.11;100821.84;5031589;28;20075;-86
2021/07/14 01:11:03;;;;;;;5.68;3.70;;;;;;;19.86;70.79;100817.47;5030732;28;20033;-85
2021/07/14 01:13:54;;;;;;;5.57;3.92;;;;;;;19.84;70.81;100814.97;5031689;28;20030;-86
2021/07/14 01:16:22;;;;;;;6.03;3.85;;;;;;;19.80;71.38;100811.78;5046632;28;20475;-85
2021/07/14 01:19:15;;;;;;;4.88;3.08;;;;;;;19.80;71.12;100810.94;5031635;28;20022;-86
2021/07/14 01:21:43;;;;;;;3.65;3.00;;;;;;;19.71;70.69;100812.72;5031853;28;20025;-86
2021/07/14 01:24:11;;;;;;;5.65;3.35;;;;;;;19.54;71.75;100810.88;5031760;28;20018;-86
2021/07/14 01:26:56;;;;;;;4.25;3.67;;;;;;;19.56;71.06;100815.03;5031625;28;20033;-86
2021/07/14 01:29:22;;;;;;;3.83;3.30;;;;;;;19.46;71.78;100818.78;5034113;28;20018;-86
2021/07/14 01:31:50;;;;;;;3.55;3.17;;;;;;;19.47;71.98;100823.09;5031306;28;20472;-86
2021/07/14 01:34:19;;;;;;;5.78;3.58;;;;;;;19.40;72.16;100822.88;5031452;28;20059;-86
2021/07/14 01:36:48;;;;;;;4.40;3.60;;;;;;;19.41;71.72;100816.56;5031787;28;20021;-86
2021/07/14 01:39:15;;;;;;;3.70;3.40;;;;;;;19.35;71.57;100827.81;5030166;28;20029;-86
2021/07/14 01:41:45;;;;;;;4.70;3.60;;;;;;;19.29;71.29;100831.91;5046814;28;20392;-85
2021/07/14 01:44:12;;;;;;;3.63;3.20;;;;;;;19.21;71.95;100818.53;5031259;28;20021;-86
2021/07/14 01:46:40;;;;;;;4.72;3.50;;;;;;;19.22;71.67;100830.84;5031219;28;20480;-86
2021/07/14 01:49:12;;;;;;;7.35;3.85;;;;;;;19.21;72.20;100832.69;5032905;28;20468;-86
2021/07/14 01:51:41;;;;;;;4.40;3.97;;;;;;;19.19;72.22;100828.47;5050925;28;20383;-86
2021/07/14 01:54:09;;;;;;;5.47;3.25;;;;;;;19.08;71.94;100832.22;5033001;28;20033;-86
2021/07/14 01:56:38;;;;;;;4.22;3.72;;;;;;;19.01;72.85;100834.59;5031235;28;20487;-86
2021/07/14 01:59:06;;;;;;;4.65;4.22;;;;;;;19.06;73.45;100828.03;5031159;28;20033;-86
2021/07/14 02:01:37;;;;;;;4.68;3.90;;;;;;;19.00;73.76;100832.94;5043747;28;20029;-86
2021/07/14 02:06:50;;;;;;;4.70;4.05;;;;;;;18.89;73.67;100838.47;5051381;28;20039;-86
2021/07/14 02:09:15;;;;;;;7.43;4.43;;;;;;;18.74;75.21;100832.78;5050857;28;20540;-86
2021/07/14 02:11:45;;;;;;;8.13;4.63;;;;;;;18.79;75.53;100827.00;5051094;28;20033;-86
2021/07/14 02:14:20;;;;;;;6.22;5.10;;;;;;;18.88;74.79;100823.50;5044577;28;20033;-86
2021/07/14 02:16:48;;;;;;;5.65;4.78;;;;;;;18.89;74.74;100821.66;5031186;28;20044;-86
2021/07/14 02:19:17;;;;;;;6.50;4.80;;;;;;;18.89;74.74;100825.16;5031031;28;20091;-86
2021/07/14 02:21:43;;;;;;;4.85;4.45;;;;;;;18.90;74.98;100818.88;5047985;28;20022;-86
2021/07/14 02:24:12;;;;;;;5.40;4.32;;;;;;;18.92;75.44;100832.84;5034593;28;20028;-86
2021/07/14 02:26:40;;;;;;;4.63;4.18;;;;;;;18.91;74.73;100831.16;5034766;28;20052;-86
2021/07/14 02:29:05;;;;;;;6.10;4.95;;;;;;;18.87;74.65;100832.44;5034503;28;20029;-86
2021/07/14 02:31:31;;;;;;;6.20;4.93;;;;;;;18.93;74.46;100839.84;5045762;28;20036;-85
2021/07/14 02:33:57;;;;;;;5.82;4.63;;;;;;;18.95;74.19;100837.88;5054312;28;20025;-86
2021/07/14 02:36:24;;;;;;;4.68;3.97;;;;;;;18.90;74.03;100829.50;5054204;28;20159;-86
2021/07/14 02:38:54;;;;;;;5.07;4.28;;;;;;;18.90;74.13;100836.63;5054472;28;20033;-86
2021/07/14 02:41:26;;;;;;;7.80;4.22;;;;;;;18.88;74.30;100836.81;5054492;28;20029;-86
2021/07/14 02:43:58;;;;;;;5.55;4.03;;;;;;;18.90;74.17;100828.66;5049066;28;20369;-86
2021/07/14 02:46:26;;;;;;;8.20;4.18;;;;;;;18.84;74.34;100830.09;5034245;28;20033;-86
2021/07/14 02:48:59;;;;;;;7.13;4.47;;;;;;;18.86;74.59;100830.78;5032739;28;20026;-86
2021/07/14 02:51:28;;;;;;;8.07;4.70;;;;;;;18.81;74.34;100835.72;5034204;28;20498;-86
2021/07/14 02:53:58;;;;;;;7.18;5.03;;;;;;;18.78;74.69;100830.66;5049485;28;20025;-86
2021/07/14 02:56:27;;;;;;;7.22;4.70;;;;;;;18.73;75.39;100839.06;5034094;28;20048;-86
2021/07/14 02:58:54;;;;;;;5.10;4.30;;;;;;;18.76;75.11;100835.25;5038503;28;20024;-86
2021/07/14 03:01:21;;;;;;;5.70;5.07;;;;;;;18.73;74.33;100838.25;5041592;28;20039;-86
2021/07/14 03:03:50;;;;;;;5.45;4.30;;;;;;;18.74;74.72;100838.09;5033945;28;20021;-86
2021/07/14 03:06:17;;;;;;;8.57;4.85;;;;;;;18.68;75.19;100845.81;5049303;28;20032;-86
2021/07/14 03:08:47;;;;;;;6.45;4.45;;;;;;;18.72;74.77;100839.19;5034041;28;20037;-86
2021/07/14 03:11:13;;;;;;;5.93;5.28;;;;;;;18.72;75.33;100844.53;5034001;28;20032;-86
2021/07/14 03:13:40;;;;;;;5.35;4.68;;;;;;;18.70;75.09;100839.38;5036199;28;20033;-86
2021/07/14 03:16:06;;;;;;;4.88;4.10;;;;;;;18.68;74.73;100851.13;5053525;28;20059;-86
2021/07/14 03:18:33;;;;;;;4.90;4.28;;;;;;;18.65;74.78;100840.78;5053501;28;20025;-85
2021/07/14 03:21:00;;;;;;;6.32;4.95;;;;;;;18.60;74.81;100836.75;5053493;28;20059;-86
2021/07/14 03:23:31;;;;;;;5.65;4.60;;;;;;;18.59;75.35;100837.72;5053389;28;20032;-86
2021/07/14 03:25:58;;;;;;;8.35;5.28;;;;;;;18.57;75.55;100853.00;5053486;28;20083;-86
2021/07/14 03:28:30;;;;;;;5.40;4.65;;;;;;;18.54;75.08;100847.97;5050710;28;20039;-86
2021/07/14 03:31:01;;;;;;;6.15;4.70;;;;;;;18.52;75.11;100846.44;5033189;28;20041;-86
2021/07/14 03:33:28;;;;;;;5.50;4.97;;;;;;;18.55;75.15;100851.47;5032892;28;20083;-86
2021/07/14 03:35:55;;;;;;;6.30;4.78;;;;;;;18.60;75.06;100847.41;5033664;28;20075;-86
2021/07/14 03:38:21;;;;;;;6.47;4.78;;;;;;;18.55;74.83;100851.47;5033350;28;20109;-86
2021/07/14 03:40:47;;;;;;;7.35;5.15;;;;;;;18.48;74.52;100851.19;5033116;28;20034;-85
2021/07/14 03:43:12;;;;;;;8.15;4.45;;;;;;;18.48;74.98;100845.88;5035461;28;20032;-86
2021/07/14 03:45:40;;;;;;;4.85;4.45;;;;;;;18.48;74.93;100848.53;5045751;28;20025;-86
2021/07/14 03:48:06;;;;;;;7.32;4.63;;;;;;;18.43;74.79;100848.97;5033215;28;20396;-86
2021/07/14 03:50:33;;;;;;;6.97;4.65;;;;;;;18.43;74.70;100848.97;5033092;28;20030;-86
2021/07/14 03:52:59;;;;;;;6.72;4.88;;;;;;;18.43;74.76;100850.81;5031650;28;20021;-86
2021/07/14 03:55:26;;;;;;;4.68;4.28;;;;;;;18.38;75.08;100842.41;5032844;28;20021;-86
2021/07/14 03:57:53;;;;;;;6.10;4.55;;;;;;;18.39;75.53;100852.06;5032850;28;20060;-86
2021/07/14 04:00:19;;;;;;;6.97;5.05;;;;;;;18.38;75.14;100853.91;5034963;28;20045;-86
2021/07/14 04:02:45;;;;;;;6.32;4.70;;;;;;;18.36;75.33;100850.53;5032563;28;20512;-86
2021/07/14 04:05:13;;;;;;;6.78;5.25;;;;;;;18.37;75.11;100856.69;5032688;28;20438;-86
2021/07/14 04:07:43;;;;;;;6.88;5.30;;;;;;;18.38;75.47;100855.69;5032774;28;20033;-86
2021/07/14 04:10:09;;;;;;;7.88;5.00;;;;;;;18.35;75.60;100858.66;5032625;28;20029;-86
2021/07/14 04:12:35;;;;;;;5.32;4.32;;;;;;;18.33;74.52;100858.81;5032616;28;20368;-86
2021/07/14 04:15:00;;;;;;;6.28;4.70;;;;;;;18.30;75.67;100863.56;5049661;28;20078;-86
2021/07/14 04:17:26;;;;;;;7.20;4.28;;;;;;;18.49;74.93;100863.50;5052578;28;20100;-86
2021/07/14 04:19:51;;;;;;;5.95;4.68;;;;;;;18.52;74.31;100863.25;5052465;28;20163;-86
2021/07/14 04:22:17;;;;;;;5.40;4.15;;;;;;;18.54;74.46;100861.28;5052520;28;20021;-85
2021/07/14 04:24:42;;;;;;;6.25;4.63;;;;;;;18.52;73.91;100859.72;5052136;28;20391;-86
2021/07/14 04:27:08;;;;;;;7.90;5.78;;;;;;;18.53;73.82;100864.91;5052277;28;20463;-86
2021/07/14 04:29:34;;;;;;;4.63;4.22;;;;;;;18.54;73.77;100865.72;5036686;28;20502;-86
2021/07/14 04:32:00;;;;;;;6.13;4.78;;;;;;;18.52;73.65;100857.91;5032438;28;20034;-86
2021/07/14 04:34:25;;;;;;;6.20;4.20;;;;;;;18.53;73.63;100854.25;5032391;28;20033;-86
2021/07/14 04:36:51;;;;;;;6.22;4.60;;;;;;;18.50;73.31;100862.50;5032280;28;20025;-86
2021/07/14 04:39:16;;;;;;;5.60;4.80;;;;;;;18.49;73.89;100863.50;5032747;28;20083;-86
2021/07/14 04:41:42;;;;;;;5.28;4.43;;;;;;;18.30;74.51;100866.22;5032109;28;20319;-86
2021/07/14 04:44:10;;;;;;;6.15;4.38;;;;;;;18.29;74.96;100873.38;5044938;28;20067;-86
2021/07/14 04:46:36;;;;;;;6.80;4.65;;;;;;;18.26;74.82;100875.47;5045516;28;20025;-86
2021/07/14 04:49:01;;;;;;;7.18;4.78;;;;;;;18.26;75.49;100883.44;5051837;28;20075;-86
2021/07/14 04:51:27;;;;;;;5.65;4.60;;;;;;;18.19;74.72;100878.69;5051810;28;20071;-86
2021/07/14 04:53:53;;;;;;;7.35;4.40;;;;;;;18.19;75.16;100881.34;5051603;28;20290;-86
2021/07/14 04:56:18;;;;;;;5.15;4.00;;;;;;;18.19;75.98;100878.69;5046375;28;20075;-86
2021/07/14 04:58:45;;;;;;;7.70;4.40;;;;;;;18.25;76.13;100877.28;5053192;28;20108;-86
2021/07/14 05:01:14;;;;;;;6.30;4.93;;;;;;;18.26;76.24;100875.47;5039997;28;20586;-86
2021/07/14 05:03:45;;;;;;;6.38;4.68;;;;;;;18.26;75.76;100878.13;5036675;28;20025;-87
2021/07/14 05:06:17;;;;;;;5.40;4.82;;;;;;;18.27;76.61;100880.66;5045543;28;20086;-87
2021/07/14 05:08:44;;;;;;;4.78;4.35;;;;;;;18.32;76.23;100889.00;5034335;28;20407;-87
2021/07/14 05:11:09;;;;;;;8.65;4.45;;;;;;;18.34;75.95;100886.22;5040902;28;20033;-87
2021/07/14 05:13:35;;;;;;;6.00;4.40;;;;;;;18.37;76.31;100885.94;5044694;28;20091;-87
2021/07/14 05:16:00;;;;;;;5.22;4.72;;;;;;;18.38;75.80;100888.47;5030676;28;20032;-88
2021/07/14 05:18:26;;;;;;;8.27;4.65;;;;;;;18.42;75.98;100899.63;5034700;28;20030;-88
2021/07/14 05:20:52;;;;;;;5.53;4.25;;;;;;;18.43;75.90;100890.69;5049265;28;20100;-87
2021/07/14 05:23:17;;;;;;;4.75;3.92;;;;;;;18.42;75.67;100891.66;5040875;28;20498;-87
2021/07/14 05:25:43;;;;;;;7.32;5.40;;;;;;;18.41;75.30;100898.78;5037534;28;20025;-86
2021/07/14 05:28:09;;;;;;;7.15;4.90;;;;;;;18.44;75.69;100902.97;5043397;28;20056;-87
2021/07/14 05:30:36;;;;;;;7.40;4.68;;;;;;;18.46;74.83;100905.50;5038189;28;20033;-87
2021/07/14 05:33:02;;;;;;;6.47;4.60;;;;;;;18.47;75.01;100912.50;5051281;28;20441;-86
2021/07/14 05:35:27;;;;;;;4.85;4.28;;;;;;;18.46;74.99;100914.31;5043983;28;20025;-87
2021/07/14 05:37:52;;;;;;;6.28;4.65;;;;;;;18.47;75.71;100918.66;5034370;28;20069;-86
2021/07/14 05:40:18;;;;;;;6.10;4.43;;;;;;;18.51;76.24;100920.06;5044646;28;20036;-87
2021/07/14 05:42:43;;;;;;;7.15;5.82;;;;;;;18.54;75.90;100922.44;5036225;28;20022;-87
2021/07/14 05:45:09;;;;;;;6.55;5.57;;;;;;;18.58;76.90;100915.84;5032777;28;20030;-86
2021/07/14 05:47:34;;;;;;;9.00;5.82;;;;;;;18.58;77.30;100912.31;5038251;28;20052;-87
2021/07/14 05:49:59;;;;;;;10.50;6.78;;;;;;;18.46;78.89;100911.66;5030429;28;20076;-86
2021/07/14 05:52:25;;;;;;;7.18;6.18;;;;;;;18.46;79.99;100916.97;5034365;28;20112;-86
2021/07/14 05:54:50;;;;;;;7.03;5.93;;;;;;;18.69;78.93;100921.97;5031972;28;20061;-88
2021/07/14 05:57:15;;;;;;;7.70;6.13;;;;;;;18.74;79.09;100927.69;5048470;28;20032;-86
2021/07/14 05:59:41;;;;;;;10.10;6.85;;;;;;;18.81;79.14;100921.66;5039378;28;20037;-85
2021/07/14 06:02:07;;;;;;;9.65;6.57;;;;;;;18.81;79.40;100918.19;5046972;28;20060;-86
2021/07/14 06:04:32;;;;;;;9.02;6.75;;;;;;;18.90;79.56;100919.97;5048214;28;20433;-86
2021/07/14 06:06:59;;;;;;;9.10;6.75;;;;;;;18.99;79.48;100924.41;5053097;28;20040;-85
2021/07/14 06:09:24;;;;;;;9.80;7.55;;;;;;;19.15;78.63;100928.25;5053631;28;20101;-86
2021/07/14 06:11:50;;;;;;;14.00;8.20;;;;;;;19.11;79.58;100924.22;5053935;28;20463;-85
2021/07/14 06:14:15;;;;;;;11.68;8.35;;;;;;;19.24;79.36;100922.06;5050484;28;20103;-86
2021/07/14 06:16:41;;;;;;;10.07;7.95;;;;;;;19.41;79.92;100923.06;5051550;28;20090;-86
2021/07/14 06:19:06;;;;;;;14.88;8.55;;;;;;;19.72;80.01;100920.94;5038796;28;20025;-86
2021/07/14 06:21:32;;;;;;;8.80;7.57;;;;;;;20.24;77.48;100925.59;5045461;28;20025;-86
2021/07/14 06:23:57;;;;;;;11.20;7.80;;;;;;;20.58;75.41;100928.31;5054602;28;20528;-86
2021/07/14 06:26:22;;;;;;;11.38;7.05;;;;;;;21.13;71.34;100923.63;5042427;28;20037;-85
2021/07/14 06:28:48;;;;;;;9.27;7.70;;;;;;;21.50;71.93;100922.44;5034574;28;20115;-85
2021/07/14 06:31:13;;;;;;;8.60;5.88;;;;;;;21.77;69.64;100926.69;5054515;28;20021;-86
2021/07/14 06:33:40;;;;;;;6.60;5.88;;;;;;;22.31;67.74;100920.88;5051885;28;20041;-86
2021/07/14 06:36:06;;;;;;;9.27;5.47;;;;;;;22.91;64.02;100923.09;5051534;28;20392;-87
2021/07/14 06:38:33;;;;;;;5.95;4.53;;;;;;;23.71;60.73;100930.09;5040033;28;20095;-85
2021/07/14 06:40:59;;;;;;;5.15;4.20;;;;;;;24.32;57.79;100926.66;5041237;28;20032;-85
2021/07/14 06:43:41;;;;;;;4.35;3.85;;;;;;;24.87;55.44;100936.19;5054178;28;20028;-87
2021/07/14 06:46:10;;;;;;;4.50;3.40;;;;;;;25.78;54.27;100926.97;5046153;28;20083;-86
2021/07/14 06:48:36;;;;;;;5.38;3.83;;;;;;;26.33;52.16;100933.47;5044106;28;20053;-86
2021/07/14 06:51:02;;;;;;;4.85;3.10;;;;;;;26.96;51.09;100927.28;5032861;28;20061;-87
2021/07/14 06:53:27;;;;;;;4.22;3.20;;;;;;;27.53;49.25;100926.09;5042905;28;20471;-88
2021/07/14 06:55:52;;;;;;;5.40;2.85;;;;;;;27.96;47.14;100933.84;5039008;28;20034;-88
2021/07/14 06:58:18;;;;;;;7.32;3.50;;;;;;;27.94;46.40;100935.09;5048675;28;20120;-87
2021/07/14 07:00:43;;;;;;;8.77;4.97;;;;;;;28.26;45.49;100936.19;5042612;28;20053;-87
2021/07/14 07:03:08;;;;;;;4.65;2.80;;;;;;;28.52;45.45;100935.34;5047755;28;20032;-87
2021/07/14 07:05:34;;;;;;;6.40;2.97;;;;;;;28.81;44.70;100933.19;5040025;28;20029;-86
2021/07/14 07:07:59;;;;;;;4.03;2.85;;;;;;;28.75;44.42;100934.88;5036310;28;20022;-87
2021/07/14 07:10:25;;;;;;;4.35;2.80;;;;;;;28.61;43.63;100933.25;5034412;28;20468;-88
2021/07/14 07:12:50;;;;;;;4.63;2.88;;;;;;;28.97;43.86;100921.09;5040547;28;20024;-88
2021/07/14 07:15:18;;;;;;;3.28;2.65;;;;;;;29.03;43.33;100925.66;5053227;28;20032;-89
2021/07/14 07:17:44;;;;;;;7.00;3.05;;;;;;;29.59;42.39;100919.56;5048132;28;20028;-88
2021/07/14 07:20:10;;;;;;;3.90;2.95;;;;;;;30.29;41.58;100913.22;5043071;28;20028;-88
2021/07/14 07:22:35;;;;;;;3.60;2.42;;;;;;;30.92;40.31;100909.50;5053263;28;20067;-88
2021/07/14 07:25:02;;;;;;;3.95;2.42;;;;;;;29.89;40.00;100908.16;5053612;28;20101;-87
2021/07/14 07:27:33;;;;;;;2.85;2.05;;;;;;;30.47;40.72;100917.06;5053404;28;20033;-87
2021/07/14 07:29:58;;;;;;;3.65;2.03;;;;;;;29.82;40.44;100923.63;5048543;28;20472;-88
2021/07/14 07:32:24;;;;;;;1.73;1.38;;;;;;;30.72;38.67;100917.00;5036549;28;20037;-88
2021/07/14 07:34:49;;;;;;;3.25;1.95;;;;;;;30.36;38.42;100921.34;5053205;28;20113;-88
2021/07/14 07:37:14;;;;;;;2.78;1.73;;;;;;;30.67;38.47;100920.41;5053087;28;20057;-88
2021/07/14 07:39:41;;;;;;;3.20;2.10;;;;;;;30.04;39.23;100915.97;5053137;28;20025;-88
2021/07/14 07:42:07;;;;;;;2.25;2.03;;;;;;;31.19;37.15;100917.31;5052838;28;20025;-88
2021/07/14 07:44:32;;;;;;;7.40;2.38;;;;;;;30.34;37.06;100916.13;5052938;28;20079;-87
2021/07/14 07:46:58;;;;;;;2.75;1.80;;;;;;;31.08;37.34;100913.47;5052047;28;20031;-85
2021/07/14 07:49:24;;;;;;;4.72;1.80;;;;;;;31.66;36.45;100922.13;5053048;28;20064;-86
2021/07/14 07:51:49;;;;;;;4.45;1.90;;;;;;;31.92;36.79;100923.59;5053089;28;20056;-86
2021/07/14 07:54:14;;;;;;;4.15;2.50;;;;;;;32.64;35.21;100923.41;5052861;28;20407;-86
2021/07/14 07:56:40;;;;;;;2.10;1.73;;;;;;;32.58;35.26;100925.22;5053048;28;20028;-86
2021/07/14 07:59:05;;;;;;;7.78;2.00;;;;;;;31.59;34.77;100928.47;5053027;28;20027;-85
2021/07/14 08:01:31;;;;;;;3.00;1.90;;;;;;;32.55;35.56;100924.84;5051010;28;20074;-86
2021/07/14 08:03:57;;;;;;;4.90;2.15;;;;;;;33.10;35.21;100934.50;5052916;28;20032;-85
2021/07/14 08:06:22;;;;;;;3.25;1.30;;;;;;;33.61;33.58;100929.16;5052792;28;20027;-86
2021/07/14 08:08:47;;;;;;;3.72;1.90;;;;;;;32.16;35.36;100924.47;5052932;28;20108;-86
2021/07/14 08:11:13;;;;;;;3.15;1.75;;;;;;;32.62;34.37;100927.44;5052752;28;20029;-86
2021/07/14 08:13:38;;;;;;;2.53;1.92;;;;;;;31.53;35.32;100929.38;5052822;28;20123;-85
2021/07/14 08:16:04;;;;;;;2.55;1.70;;;;;;;32.77;35.54;100930.50;5045543;28;20033;-85
2021/07/14 08:18:29;;;;;;;2.78;2.10;;;;;;;32.94;34.25;100923.25;5032677;28;20091;-84
2021/07/14 08:20:56;;;;;;;4.47;1.90;;;;;;;32.00;34.68;100926.81;5032373;28;20036;-85
2021/07/14 08:23:22;;;;;;;3.92;1.90;;;;;;;32.69;35.13;100920.81;5036311;28;20025;-86
2021/07/14 08:25:51;;;;;;;2.90;1.77;;;;;;;33.89;33.77;100923.72;5052559;28;20024;-86
2021/07/14 08:28:16;;;;;;;3.72;2.00;;;;;;;33.27;33.67;100915.50;5044062;28;20018;-85
2021/07/14 08:30:41;;;;;;;4.20;1.88;;;;;;;33.10;33.39;100927.16;5046988;28;20487;-87
2021/07/14 08:33:07;;;;;;;2.83;1.60;;;;;;;34.42;32.28;100916.13;5050973;28;20116;-87
2021/07/14 08:35:32;;;;;;;2.92;1.65;;;;;;;33.62;33.19;100922.66;5052630;28;20064;-86
2021/07/14 08:37:57;;;;;;;2.35;1.85;;;;;;;33.27;33.93;100927.19;5052743;28;20376;-86
2021/07/14 08:40:23;;;;;;;2.45;1.50;;;;;;;33.72;33.04;100911.97;5052168;28;20418;-86
2021/07/14 08:42:50;;;;;;;2.78;1.80;;;;;;;32.72;34.88;100927.66;5051908;28;20055;-84
2021/07/14 08:45:19;;;;;;;2.90;1.90;;;;;;;31.25;35.63;100924.53;5043295;28;20030;-85
2021/07/14 08:47:45;;;;;;;2.83;1.58;;;;;;;32.43;35.50;100922.13;5051914;28;20025;-86
2021/07/14 08:50:11;;;;;;;2.50;1.60;;;;;;;31.84;36.17;100924.75;5047080;28;20024;-85
2021/07/14 08:52:42;;;;;;;4.97;2.30;;;;;;;32.22;35.20;100926.25;5031828;28;20030;-86
2021/07/14 08:55:10;;;;;;;3.70;2.17;;;;;;;32.39;34.83;100927.22;5044018;28;20014;-86
2021/07/14 08:57:36;;;;;;;8.25;1.65;;;;;;;31.68;35.58;100930.88;5040745;28;20114;-86
2021/07/14 09:00:05;;;;;;;1.80;1.63;;;;;;;31.36;36.03;100906.63;5031985;28;20459;-86
2021/07/14 09:02:31;;;;;;;1.77;1.67;;;;;;;31.50;36.25;100912.72;5049850;28;20548;-85
2021/07/14 09:04:56;;;;;;;3.85;2.33;;;;;;;30.77;36.88;100922.59;5051783;28;20025;-85
2021/07/14 09:07:21;;;;;;;2.30;1.90;;;;;;;32.03;34.74;100927.41;5050333;28;20513;-85
2021/07/14 09:09:47;;;;;;;3.72;1.70;;;;;;;31.75;35.79;100920.72;5039682;28;20028;-86
2021/07/14 09:12:13;;;;;;;3.28;2.15;;;;;;;29.97;37.79;100926.81;5049978;28;20052;-86
2021/07/14 09:14:40;;;;;;;3.65;1.70;;;;;;;31.01;37.60;100921.69;5046580;28;20245;-85
2021/07/14 09:17:19;;;;;;;3.63;1.80;;;;;;;32.23;36.42;100922.50;5045456;28;20447;-88
2021/07/14 09:19:45;;;;;;;3.20;2.05;;;;;;;32.19;35.10;100924.03;5039497;28;20033;-85
2021/07/14 09:22:19;;;;;;;2.20;2.00;;;;;;;32.09;34.84;100931.91;5035523;28;20028;-85
2021/07/14 09:24:45;;;;;;;10.05;2.40;;;;;;;30.58;37.47;100927.16;5031074;28;20022;-88
2021/07/14 09:27:17;;;;;;;2.00;1.45;;;;;;;31.04;36.96;100923.13;5041509;28;20167;-91
2021/07/14 09:30:08;;;;;;;2.55;2.20;;;;;;;32.22;34.36;100928.97;5050885;28;20025;-86
2021/07/14 09:32:57;;;;;;;2.40;1.60;;;;;;;33.49;34.18;100929.22;5042739;28;20490;-86
2021/07/14 09:35:33;;;;;;;2.85;1.70;;;;;;;33.83;33.38;100926.59;5052512;28;20656;-87
2021/07/14 09:38:02;;;;;;;2.90;1.55;;;;;;;32.89;32.59;100930.50;5055407;28;20017;-86
2021/07/14 09:40:28;;;;;;;2.95;1.60;;;;;;;31.83;35.93;100931.25;5055551;28;20025;-87
2021/07/14 09:43:00;;;;;;;1.95;1.42;;;;;;;33.40;33.01;100934.25;5055346;28;20064;-86
2021/07/14 09:45:39;;;;;;;1.70;1.40;;;;;;;34.69;31.80;100921.69;5055451;28;20028;-87
2021/07/14 09:48:07;;;;;;;1.65;1.50;;;;;;;34.63;31.04;100919.94;5054269;28;20394;-88
2021/07/14 09:50:41;;;;;;;3.75;1.35;;;;;;;34.07;32.73;100924.56;5052023;28;20028;-89
2021/07/14 09:53:10;;;;;;;3.53;1.10;;;;;;;33.61;33.53;100929.16;5049201;28;20036;-88
2021/07/14 09:55:37;;;;;;;2.75;1.17;;;;;;;34.81;31.25;100928.91;5055404;28;20027;-88
2021/07/14 09:58:11;;;;;;;3.70;1.40;;;;;;;36.15;30.45;100926.47;5053215;28;20167;-88
2021/07/14 10:00:44;;;;;;;3.05;0.90;;;;;;;35.72;29.58;100920.97;5038877;28;20502;-88
2021/07/14 10:03:17;;;;;;;2.70;1.60;;;;;;;35.00;31.33;100922.06;5035670;28;20029;-87
2021/07/14 10:05:43;;;;;;;2.28;1.42;;;;;;;36.41;29.52;100921.22;5052121;28;20116;-88
2021/07/14 10:08:22;;;;;;;1.63;1.23;;;;;;;36.26;28.27;100922.78;5040067;28;20047;-88
2021/07/14 10:10:49;;;;;;;3.20;1.50;;;;;;;35.53;29.45;100925.13;5034359;28;20084;-87
2021/07/14 10:13:18;;;;;;;28.13;3.17;;;;;;;36.21;29.74;100928.19;5034717;28;20026;-88
2021/07/14 10:15:43;;;;;;;10.43;2.45;;;;;;;36.09;29.46;100927.53;5046288;28;20033;-88
2021/07/14 10:18:11;;;;;;;3.05;1.10;;;;;;;34.51;32.18;100938.31;5049965;28;20364;-87
2021/07/14 10:20:38;;;;;;;1.58;1.33;;;;;;;33.29;31.51;100937.84;5050286;28;20036;-87
2021/07/14 10:23:09;;;;;;;1.90;1.05;;;;;;;34.72;31.77;100934.81;5041081;28;20029;-87
2021/07/14 10:25:36;;;;;;;2.72;1.55;;;;;;;33.51;32.48;100927.94;5047993;28;20025;-87
2021/07/14 10:28:04;;;;;;;3.28;1.30;;;;;;;34.33;31.90;100929.34;5034701;28;20047;-87
2021/07/14 10:30:30;;;;;;;1.27;0.90;;;;;;;35.27;31.70;100929.47;5034468;28;20018;-87
2021/07/14 10:32:57;;;;;;;5.20;1.27;;;;;;;36.37;29.03;100931.84;5037948;28;20028;-87
2021/07/14 10:35:31;;;;;;;9.35;1.40;;;;;;;36.10;29.32;100930.00;5045022;28;20032;-86
2021/07/14 10:38:02;;;;;;;2.42;1.13;;;;;;;34.04;31.58;100927.75;5046961;28;20383;-87
2021/07/14 10:40:28;;;;;;;1.40;1.30;;;;;;;34.68;31.33;100935.59;5044290;28;20031;-87
2021/07/14 10:42:55;;;;;;;3.83;1.27;;;;;;;34.89;31.08;100932.03;5053747;28;20446;-87
2021/07/14 10:45:21;;;;;;;1.45;1.10;;;;;;;34.43;32.15;100934.09;5041353;28;20037;-87
2021/07/14 10:47:48;;;;;;;2.55;1.13;;;;;;;34.51;33.13;100932.84;5037040;28;20387;-87
2021/07/14 10:50:18;;;;;;;2.30;1.27;;;;;;;33.72;31.70;100928.31;5051322;28;20083;-87
2021/07/14 10:52:45;;;;;;;;;;;;;;;34.52;32.65;100926.31;5050821;28;20065;-87
2021/07/14 10:55:16;;;;;;;2.20;1.13;;;;;;;35.25;31.04;100923.47;5034504;28;19952;-86
2021/07/14 10:57:42;;;;;;;1.27;1.17;;;;;;;35.74;30.51;100927.00;5034113;28;20112;-86
2021/07/14 11:00:09;;;;;;;2.42;1.20;;;;;;;34.93;31.25;100919.56;5033811;28;20454;-85
2021/07/14 11:02:42;;;;;;;1.95;1.00;;;;;;;34.57;31.15;100923.66;5033377;28;20119;-85
2021/07/14 11:05:10;;;;;;;2.78;1.13;;;;;;;33.96;31.90;100918.91;5033205;28;20486;-86
2021/07/14 11:07:42;;;;;;;2.47;1.40;;;;;;;33.63;32.20;100927.06;5039038;28;20025;-86
2021/07/14 11:10:34;;;;;;;2.70;1.42;;;;;;;31.89;34.83;100927.59;5053696;28;20123;-86
2021/07/14 11:13:29;;;;;;;3.47;1.77;;;;;;;33.24;32.95;100926.88;5034935;28;20483;-85
2021/07/14 11:15:56;;;;;;;1.10;0.98;;;;;;;34.88;29.56;100913.19;5034164;28;20108;-86
2021/07/14 11:18:30;;;;;;;1.45;0.90;;;;;;;34.63;31.46;100919.13;5038997;28;20081;-91
2021/07/14 11:20:58;;;;;;;1.70;0.88;;;;;;;34.51;30.83;100920.03;5044774;28;20455;-92
2021/07/14 11:23:25;;;;;;;3.42;1.10;;;;;;;34.64;30.67;100913.41;5046066;28;20030;-92
2021/07/14 11:26:02;;;;;;;1.85;1.15;;;;;;;34.52;31.52;100927.16;5048521;28;20515;-86
2021/07/14 11:28:28;;;;;;;1.00;0.90;;;;;;;35.94;29.91;100920.03;5049191;28;20036;-86
2021/07/14 11:30:56;;;;;;;1.67;1.23;;;;;;;35.61;30.20;100926.56;5050063;28;20021;-86
2021/07/14 11:33:27;;;;;;;1.60;0.88;;;;;;;35.94;28.36;100931.81;5044000;28;20525;-87
2021/07/14 11:36:01;;;;;;;5.15;1.10;;;;;;;35.32;29.40;100919.44;5053053;28;20079;-86
2021/07/14 11:38:30;;;;;;;1.23;0.80;;;;;;;35.02;30.11;100919.09;5053107;28;20029;-86